Shelbyville, IN

6:51 PM EDT on August 20, 2014 (GMT -0400)
KINGREEN7 | Change Station
CLOSE
Current Station
Personal Weather Station
Location: Greenfield, IN
Elevation: 865 ft
Nearby Weather Stations

Elev 865 ft 39.79 °N, 85.80 °W | Updated 49 seconds ago

Clear
Clear
79.2 °F
Feels Like 81 °F
N
0.0
Wind Variable Wind from SW
Gusts 5.0 mph

Today
High -- | Low -- °F
--% Chance of Precip.
Yesterday
High -- | Low -- °F
Precip. -- in
7:00 AM 8:32 PM
Waning Crescent, 18% visible
Pressure 29.92 in
Visibility 10.0 miles
Clouds Clear
Heat Index 81 °F
Dew Point 66 °F
Humidity 65%
Rainfall 0.00 in
Snow Depth Not available.
UV 3 out of 12
Pollen 9.90 out of 12
Ozone Good
PM2.5 Good
Flu Activity Not available.
METAR KGEZ 202153Z AUTO 22007KT 10SM CLR 27/19 A2993 RMK AO2 SLP130 T02670189

More Conditions Fewer Conditions

Pressure 29.92 in
Visibility 10.0 miles
Clouds Clear
Heat Index 81 °F
Dew Point 66 °F
Humidity 65%
Rainfall 0.00 in
Snow Depth Not available.
UV 3 out of 12
Pollen 9.90 out of 12
Ozone Good
PM2.5 Good
Flu Activity Not available.
METAR KGEZ 202153Z AUTO 22007KT 10SM CLR 27/19 A2993 RMK AO2 SLP130 T02670189

More Conditions Fewer Conditions

10-Day Weather Forecast

Almanac

Astronomy

Aug. 20, 2014 Rise Set
Actual Time 7:00 AM EDT 8:32 PM EDT
Civil Twilight 6:31 AM EDT 9:00 PM EDT
Nautical Twilight 5:57 AM EDT 9:34 PM EDT
Astronomical Twilight 5:21 AM EDT 10:10 PM EDT
Moon 2:40 AM EDT 5:16 PM EDT
Length of Visible Light 14h 28m
Length of Day
13h 31m
Tomorrow will be 2m 22s shorter.
Waning Crescent, 18% of the Moon is Illuminated
Today
Waning Crescent
Aug 25
New
Sep 2
First Quarter
Sep 8
Full
Sep 15
Last Quarter

Today's Extremes

State Highs State Lows

Community

WunderPhotos

Upload Photos

1,745,791 photos uploaded!

Nearby

Air Quality

  Air Quality AQ Index Pollutant
Yesterday Good
PM10
Yesterday Good
OZONE
Current Good
OZONE
Current Good
PM2.5
Wednesday Moderate
PM2.5
Wednesday Good
OZONE
Thursday Moderate
PM2.5
Thursday Good
OZONE
Friday Moderate
PM2.5
Friday Good
OZONE

Snow Depth

Station Depth Elevation
No new snow has been reported.

Earthquake Activity

City Distance Mag. Time & Date
No recent earthquake activity has been reported nearby.
Minimum magnitude displayed is 2.5.

Coastal Water Temperatures

Place Temperature
No Stations Reporting

Nearby Weather Stations